sensor_id;sensor_type;location;lat;lon;timestamp;P1;durP1;ratioP1;P2;durP2;ratioP2
13568;SDS011;6856;51.460;7.158;2022-09-29T02:32:39;6.60;;;4.40;;
13568;SDS011;6856;51.460;7.158;2022-09-29T02:35:13;5.50;;;4.97;;
13568;SDS011;6856;51.460;7.158;2022-09-29T02:37:53;6.17;;;5.30;;
13568;SDS011;6856;51.460;7.158;2022-09-29T02:40:38;8.03;;;5.30;;
13568;SDS011;6856;51.460;7.158;2022-09-29T02:43:29;7.37;;;5.20;;
13568;SDS011;6856;51.460;7.158;2022-09-29T02:46:30;5.00;;;4.50;;
13568;SDS011;6856;51.460;7.158;2022-09-29T02:49:27;6.30;;;4.97;;
13568;SDS011;6856;51.460;7.158;2022-09-29T02:52:25;5.70;;;4.87;;
13568;SDS011;6856;51.460;7.158;2022-09-29T02:55:15;5.40;;;4.13;;
13568;SDS011;6856;51.460;7.158;2022-09-29T02:57:57;5.37;;;4.83;;
13568;SDS011;6856;51.460;7.158;2022-09-29T03:00:36;5.90;;;5.17;;
13568;SDS011;6856;51.460;7.158;2022-09-29T03:03:11;5.10;;;4.57;;
13568;SDS011;6856;51.460;7.158;2022-09-29T03:05:48;7.53;;;4.33;;
13568;SDS011;6856;51.460;7.158;2022-09-29T03:08:22;5.37;;;4.87;;
13568;SDS011;6856;51.460;7.158;2022-09-29T03:10:55;5.20;;;4.60;;
13568;SDS011;6856;51.460;7.158;2022-09-29T03:13:29;7.00;;;5.47;;
13568;SDS011;6856;51.460;7.158;2022-09-29T03:16:02;6.10;;;5.40;;
13568;SDS011;6856;51.460;7.158;2022-09-29T03:18:36;5.63;;;4.83;;
13568;SDS011;6856;51.460;7.158;2022-09-29T03:21:11;4.70;;;4.17;;
13568;SDS011;6856;51.460;7.158;2022-09-29T03:23:45;5.57;;;4.50;;
13568;SDS011;6856;51.460;7.158;2022-09-29T03:26:18;5.87;;;4.70;;
13568;SDS011;6856;51.460;7.158;2022-09-29T03:28:52;4.80;;;4.17;;
13568;SDS011;6856;51.460;7.158;2022-09-29T03:31:25;7.27;;;5.07;;
13568;SDS011;6856;51.460;7.158;2022-09-29T03:33:59;5.30;;;4.60;;
13568;SDS011;6856;51.460;7.158;2022-09-29T03:36:34;4.63;;;4.13;;
13568;SDS011;6856;51.460;7.158;2022-09-29T03:39:07;5.23;;;4.43;;
13568;SDS011;6856;51.460;7.158;2022-09-29T03:41:40;5.80;;;4.83;;
13568;SDS011;6856;51.460;7.158;2022-09-29T03:44:14;6.13;;;4.33;;
13568;SDS011;6856;51.460;7.158;2022-09-29T03:46:47;5.73;;;4.80;;
13568;SDS011;6856;51.460;7.158;2022-09-29T03:49:21;4.60;;;4.13;;
13568;SDS011;6856;51.460;7.158;2022-09-29T03:51:55;5.17;;;4.63;;
13568;SDS011;6856;51.460;7.158;2022-09-29T03:54:29;6.17;;;5.10;;
13568;SDS011;6856;51.460;7.158;2022-09-29T03:57:03;5.10;;;4.60;;
13568;SDS011;6856;51.460;7.158;2022-09-29T03:59:36;5.47;;;4.40;;
13568;SDS011;6856;51.460;7.158;2022-09-29T04:02:15;4.60;;;4.17;;
13568;SDS011;6856;51.460;7.158;2022-09-29T04:04:50;6.77;;;4.67;;
13568;SDS011;6856;51.460;7.158;2022-09-29T04:07:26;6.30;;;4.43;;
13568;SDS011;6856;51.460;7.158;2022-09-29T04:09:59;4.43;;;4.03;;
13568;SDS011;6856;51.460;7.158;2022-09-29T04:12:32;4.50;;;4.10;;
13568;SDS011;6856;51.460;7.158;2022-09-29T04:15:06;5.03;;;4.07;;
13568;SDS011;6856;51.460;7.158;2022-09-29T04:17:41;5.33;;;4.30;;
13568;SDS011;6856;51.460;7.158;2022-09-29T04:20:15;4.37;;;3.97;;
13568;SDS011;6856;51.460;7.158;2022-09-29T04:22:50;4.73;;;4.20;;
13568;SDS011;6856;51.460;7.158;2022-09-29T04:25:24;5.47;;;4.30;;
13568;SDS011;6856;51.460;7.158;2022-09-29T04:27:58;4.87;;;3.77;;
13568;SDS011;6856;51.460;7.158;2022-09-29T04:30:33;6.93;;;4.40;;
13568;SDS011;6856;51.460;7.158;2022-09-29T04:33:06;4.63;;;4.20;;
13568;SDS011;6856;51.460;7.158;2022-09-29T04:35:41;4.83;;;4.33;;
13568;SDS011;6856;51.460;7.158;2022-09-29T04:38:15;5.37;;;4.60;;
13568;SDS011;6856;51.460;7.158;2022-09-29T04:40:49;5.33;;;4.37;;
13568;SDS011;6856;51.460;7.158;2022-09-29T04:43:23;5.33;;;4.33;;
13568;SDS011;6856;51.460;7.158;2022-09-29T04:46:03;6.57;;;4.87;;
13568;SDS011;6856;51.460;7.158;2022-09-29T04:48:38;5.70;;;4.53;;
13568;SDS011;6856;51.460;7.158;2022-09-29T04:51:13;5.23;;;4.53;;
13568;SDS011;6856;51.460;7.158;2022-09-29T04:53:48;5.47;;;4.40;;
13568;SDS011;6856;51.460;7.158;2022-09-29T04:56:24;5.20;;;4.60;;
13568;SDS011;6856;51.460;7.158;2022-09-29T04:59:01;5.93;;;5.03;;
13568;SDS011;6856;51.460;7.158;2022-09-29T05:01:36;6.03;;;4.87;;
13568;SDS011;6856;51.460;7.158;2022-09-29T05:04:10;6.20;;;5.27;;
13568;SDS011;6856;51.460;7.158;2022-09-29T05:06:44;5.87;;;4.90;;
13568;SDS011;6856;51.460;7.158;2022-09-29T05:09:19;6.03;;;5.23;;
13568;SDS011;6856;51.460;7.158;2022-09-29T05:11:55;5.83;;;5.20;;
13568;SDS011;6856;51.460;7.158;2022-09-29T05:14:31;5.87;;;4.73;;
13568;SDS011;6856;51.460;7.158;2022-09-29T05:17:05;5.90;;;5.30;;
13568;SDS011;6856;51.460;7.158;2022-09-29T05:19:38;6.13;;;5.20;;
13568;SDS011;6856;51.460;7.158;2022-09-29T05:22:12;6.83;;;5.90;;
13568;SDS011;6856;51.460;7.158;2022-09-29T05:24:47;5.57;;;4.90;;
13568;SDS011;6856;51.460;7.158;2022-09-29T05:27:20;6.17;;;5.40;;
13568;SDS011;6856;51.460;7.158;2022-09-29T05:29:53;7.30;;;5.57;;
13568;SDS011;6856;51.460;7.158;2022-09-29T05:32:27;5.53;;;4.87;;
13568;SDS011;6856;51.460;7.158;2022-09-29T05:35:01;6.23;;;5.17;;
13568;SDS011;6856;51.460;7.158;2022-09-29T05:37:34;6.17;;;5.33;;
13568;SDS011;6856;51.460;7.158;2022-09-29T05:40:09;6.97;;;5.53;;
13568;SDS011;6856;51.460;7.158;2022-09-29T05:42:43;6.30;;;5.03;;
13568;SDS011;6856;51.460;7.158;2022-09-29T05:45:17;5.93;;;5.33;;
13568;SDS011;6856;51.460;7.158;2022-09-29T05:47:54;6.07;;;5.47;;
13568;SDS011;6856;51.460;7.158;2022-09-29T05:50:27;7.03;;;5.93;;
13568;SDS011;6856;51.460;7.158;2022-09-29T05:53:02;6.13;;;5.53;;
13568;SDS011;6856;51.460;7.158;2022-09-29T05:55:37;6.90;;;5.63;;
13568;SDS011;6856;51.460;7.158;2022-09-29T05:58:12;6.50;;;5.90;;
13568;SDS011;6856;51.460;7.158;2022-09-29T06:00:45;6.67;;;6.00;;
13568;SDS011;6856;51.460;7.158;2022-09-29T06:03:19;7.00;;;5.80;;
13568;SDS011;6856;51.460;7.158;2022-09-29T06:05:52;7.27;;;6.17;;
13568;SDS011;6856;51.460;7.158;2022-09-29T06:08:26;6.60;;;5.77;;
13568;SDS011;6856;51.460;7.158;2022-09-29T06:11:04;6.20;;;5.60;;
13568;SDS011;6856;51.460;7.158;2022-09-29T06:13:39;6.40;;;5.63;;
13568;SDS011;6856;51.460;7.158;2022-09-29T06:16:15;6.43;;;5.70;;
13568;SDS011;6856;51.460;7.158;2022-09-29T06:18:51;6.87;;;5.63;;
13568;SDS011;6856;51.460;7.158;2022-09-29T06:21:26;6.17;;;5.57;;
13568;SDS011;6856;51.460;7.158;2022-09-29T06:24:01;7.13;;;5.50;;
13568;SDS011;6856;51.460;7.158;2022-09-29T06:26:38;7.43;;;6.07;;
13568;SDS011;6856;51.460;7.158;2022-09-29T06:29:13;6.47;;;5.70;;
13568;SDS011;6856;51.460;7.158;2022-09-29T06:31:47;7.50;;;5.60;;
13568;SDS011;6856;51.460;7.158;2022-09-29T06:34:21;6.43;;;5.30;;
13568;SDS011;6856;51.460;7.158;2022-09-29T06:36:54;6.03;;;5.17;;
13568;SDS011;6856;51.460;7.158;2022-09-29T06:39:45;6.17;;;5.57;;
13568;SDS011;6856;51.460;7.158;2022-09-29T06:42:20;6.33;;;5.63;;
13568;SDS011;6856;51.460;7.158;2022-09-29T06:44:53;6.20;;;5.60;;
13568;SDS011;6856;51.460;7.158;2022-09-29T06:47:27;6.20;;;5.60;;
13568;SDS011;6856;51.460;7.158;2022-09-29T06:50:00;6.63;;;5.97;;
13568;SDS011;6856;51.460;7.158;2022-09-29T06:52:42;5.93;;;5.33;;
13568;SDS011;6856;51.460;7.158;2022-09-29T06:55:29;6.00;;;5.40;;
13568;SDS011;6856;51.460;7.158;2022-09-29T06:58:03;6.60;;;5.60;;
13568;SDS011;6856;51.460;7.158;2022-09-29T07:00:37;7.57;;;5.87;;
13568;SDS011;6856;51.460;7.158;2022-09-29T07:03:10;6.40;;;5.27;;
13568;SDS011;6856;51.460;7.158;2022-09-29T07:05:44;6.00;;;5.27;;
13568;SDS011;6856;51.460;7.158;2022-09-29T07:08:37;6.07;;;5.23;;
13568;SDS011;6856;51.460;7.158;2022-09-29T07:11:11;6.17;;;4.97;;
13568;SDS011;6856;51.460;7.158;2022-09-29T07:13:46;6.73;;;5.23;;
13568;SDS011;6856;51.460;7.158;2022-09-29T07:16:25;6.57;;;5.77;;
13568;SDS011;6856;51.460;7.158;2022-09-29T07:18:58;6.57;;;5.43;;
13568;SDS011;6856;51.460;7.158;2022-09-29T07:21:32;6.70;;;5.27;;
13568;SDS011;6856;51.460;7.158;2022-09-29T07:24:06;7.77;;;5.57;;
13568;SDS011;6856;51.460;7.158;2022-09-29T07:26:40;6.13;;;4.97;;
13568;SDS011;6856;51.460;7.158;2022-09-29T07:29:15;5.87;;;5.17;;
13568;SDS011;6856;51.460;7.158;2022-09-29T07:31:49;5.27;;;4.57;;
13568;SDS011;6856;51.460;7.158;2022-09-29T07:34:23;5.90;;;4.33;;
13568;SDS011;6856;51.460;7.158;2022-09-29T07:36:56;6.70;;;4.97;;
13568;SDS011;6856;51.460;7.158;2022-09-29T07:39:31;4.97;;;4.47;;
13568;SDS011;6856;51.460;7.158;2022-09-29T07:42:05;5.67;;;5.00;;
13568;SDS011;6856;51.460;7.158;2022-09-29T07:44:41;6.07;;;5.00;;
13568;SDS011;6856;51.460;7.158;2022-09-29T07:47:18;6.93;;;4.87;;
13568;SDS011;6856;51.460;7.158;2022-09-29T07:49:52;6.27;;;4.90;;
13568;SDS011;6856;51.460;7.158;2022-09-29T07:52:25;5.20;;;4.57;;
13568;SDS011;6856;51.460;7.158;2022-09-29T07:54:59;5.40;;;4.90;;
13568;SDS011;6856;51.460;7.158;2022-09-29T07:57:32;5.40;;;4.90;;
13568;SDS011;6856;51.460;7.158;2022-09-29T08:00:08;5.13;;;4.50;;
13568;SDS011;6856;51.460;7.158;2022-09-29T08:02:43;5.53;;;4.97;;
13568;SDS011;6856;51.460;7.158;2022-09-29T08:05:17;5.10;;;4.60;;
13568;SDS011;6856;51.460;7.158;2022-09-29T08:07:50;5.17;;;4.67;;
13568;SDS011;6856;51.460;7.158;2022-09-29T08:10:27;5.47;;;4.20;;
13568;SDS011;6856;51.460;7.158;2022-09-29T08:13:01;6.07;;;4.70;;
13568;SDS011;6856;51.460;7.158;2022-09-29T08:15:36;4.47;;;4.03;;
13568;SDS011;6856;51.460;7.158;2022-09-29T08:18:10;5.63;;;4.27;;
13568;SDS011;6856;51.460;7.158;2022-09-29T08:20:46;4.93;;;3.97;;
13568;SDS011;6856;51.460;7.158;2022-09-29T08:23:19;4.20;;;3.77;;
13568;SDS011;6856;51.460;7.158;2022-09-29T08:25:58;5.40;;;4.40;;
13568;SDS011;6856;51.460;7.158;2022-09-29T08:28:33;5.47;;;4.60;;
13568;SDS011;6856;51.460;7.158;2022-09-29T08:31:11;5.73;;;4.07;;
13568;SDS011;6856;51.460;7.158;2022-09-29T08:33:49;5.23;;;4.17;;
13568;SDS011;6856;51.460;7.158;2022-09-29T08:36:23;4.10;;;3.57;;
13568;SDS011;6856;51.460;7.158;2022-09-29T08:38:57;3.40;;;3.10;;
13568;SDS011;6856;51.460;7.158;2022-09-29T08:41:33;3.97;;;3.57;;
13568;SDS011;6856;51.460;7.158;2022-09-29T08:44:26;3.67;;;3.37;;
13568;SDS011;6856;51.460;7.158;2022-09-29T08:47:15;4.50;;;3.60;;
13568;SDS011;6856;51.460;7.158;2022-09-29T08:50:12;4.87;;;3.17;;
13568;SDS011;6856;51.460;7.158;2022-09-29T08:52:52;4.50;;;2.87;;
13568;SDS011;6856;51.460;7.158;2022-09-29T08:55:32;3.47;;;2.47;;
13568;SDS011;6856;51.460;7.158;2022-09-29T08:58:14;4.87;;;2.97;;
13568;SDS011;6856;51.460;7.158;2022-09-29T09:00:50;3.83;;;3.13;;
13568;SDS011;6856;51.460;7.158;2022-09-29T09:03:51;3.97;;;3.10;;
13568;SDS011;6856;51.460;7.158;2022-09-29T09:07:01;2.80;;;2.50;;
13568;SDS011;6856;51.460;7.158;2022-09-29T09:10:01;3.10;;;2.60;;
13568;SDS011;6856;51.460;7.158;2022-09-29T09:12:58;3.23;;;1.90;;
13568;SDS011;6856;51.460;7.158;2022-09-29T09:15:53;2.33;;;1.70;;
13568;SDS011;6856;51.460;7.158;2022-09-29T09:21:57;3.43;;;2.47;;
13568;SDS011;6856;51.460;7.158;2022-09-29T09:24:47;2.50;;;2.20;;
13568;SDS011;6856;51.460;7.158;2022-09-29T09:27:30;5.23;;;2.37;;
13568;SDS011;6856;51.460;7.158;2022-09-29T09:30:16;4.00;;;2.77;;
13568;SDS011;6856;51.460;7.158;2022-09-29T09:32:53;3.33;;;2.33;;
13568;SDS011;6856;51.460;7.158;2022-09-29T09:35:34;3.73;;;2.73;;
13568;SDS011;6856;51.460;7.158;2022-09-29T09:38:33;3.40;;;2.10;;
13568;SDS011;6856;51.460;7.158;2022-09-29T09:41:18;3.47;;;2.63;;
13568;SDS011;6856;51.460;7.158;2022-09-29T09:43:57;2.90;;;2.43;;
13568;SDS011;6856;51.460;7.158;2022-09-29T09:46:39;3.23;;;2.63;;
13568;SDS011;6856;51.460;7.158;2022-09-29T09:49:21;3.20;;;2.70;;
13568;SDS011;6856;51.460;7.158;2022-09-29T09:52:03;3.23;;;2.73;;
13568;SDS011;6856;51.460;7.158;2022-09-29T09:54:46;2.93;;;2.43;;
13568;SDS011;6856;51.460;7.158;2022-09-29T10:00:44;3.37;;;2.30;;
13568;SDS011;6856;51.460;7.158;2022-09-29T10:03:22;3.43;;;2.27;;
13568;SDS011;6856;51.460;7.158;2022-09-29T10:05:56;3.60;;;2.70;;
13568;SDS011;6856;51.460;7.158;2022-09-29T10:08:32;3.17;;;2.13;;
13568;SDS011;6856;51.460;7.158;2022-09-29T10:11:15;4.73;;;2.50;;
13568;SDS011;6856;51.460;7.158;2022-09-29T10:13:57;3.77;;;2.53;;
13568;SDS011;6856;51.460;7.158;2022-09-29T10:16:39;4.20;;;2.80;;
13568;SDS011;6856;51.460;7.158;2022-09-29T10:19:20;2.47;;;2.00;;
13568;SDS011;6856;51.460;7.158;2022-09-29T10:21:54;2.63;;;2.10;;
13568;SDS011;6856;51.460;7.158;2022-09-29T10:24:46;3.17;;;2.20;;
13568;SDS011;6856;51.460;7.158;2022-09-29T10:27:25;2.33;;;2.10;;
13568;SDS011;6856;51.460;7.158;2022-09-29T10:29:58;3.03;;;2.20;;
13568;SDS011;6856;51.460;7.158;2022-09-29T10:32:34;3.60;;;2.10;;
13568;SDS011;6856;51.460;7.158;2022-09-29T10:35:14;2.60;;;1.73;;
13568;SDS011;6856;51.460;7.158;2022-09-29T10:37:58;2.70;;;1.83;;
13568;SDS011;6856;51.460;7.158;2022-09-29T10:40:35;2.10;;;1.90;;
13568;SDS011;6856;51.460;7.158;2022-09-29T10:43:16;2.60;;;1.87;;
13568;SDS011;6856;51.460;7.158;2022-09-29T10:45:57;1.70;;;1.60;;
13568;SDS011;6856;51.460;7.158;2022-09-29T10:48:30;1.30;;;1.20;;
13568;SDS011;6856;51.460;7.158;2022-09-29T10:51:05;1.50;;;1.40;;
13568;SDS011;6856;51.460;7.158;2022-09-29T10:53:53;4.03;;;1.57;;
13568;SDS011;6856;51.460;7.158;2022-09-29T10:56:29;2.17;;;1.40;;
13568;SDS011;6856;51.460;7.158;2022-09-29T10:59:03;3.50;;;1.40;;
13568;SDS011;6856;51.460;7.158;2022-09-29T11:01:41;2.47;;;1.30;;
13568;SDS011;6856;51.460;7.158;2022-09-29T11:04:21;2.57;;;1.20;;
13568;SDS011;6856;51.460;7.158;2022-09-29T11:07:04;1.27;;;1.00;;
13568;SDS011;6856;51.460;7.158;2022-09-29T11:09:44;1.37;;;1.10;;
13568;SDS011;6856;51.460;7.158;2022-09-29T11:12:26;1.77;;;1.20;;
13568;SDS011;6856;51.460;7.158;2022-09-29T11:15:21;2.37;;;1.07;;
13568;SDS011;6856;51.460;7.158;2022-09-29T11:17:58;1.93;;;1.20;;
13568;SDS011;6856;51.460;7.158;2022-09-29T11:20:32;2.93;;;1.33;;
13568;SDS011;6856;51.460;7.158;2022-09-29T11:23:12;2.10;;;1.27;;
13568;SDS011;6856;51.460;7.158;2022-09-29T11:26:13;2.20;;;1.50;;
13568;SDS011;6856;51.460;7.158;2022-09-29T11:29:10;2.33;;;1.40;;
13568;SDS011;6856;51.460;7.158;2022-09-29T11:32:04;3.90;;;1.30;;
13568;SDS011;6856;51.460;7.158;2022-09-29T11:34:58;1.77;;;1.30;;
13568;SDS011;6856;51.460;7.158;2022-09-29T11:38:02;1.77;;;1.00;;
13568;SDS011;6856;51.460;7.158;2022-09-29T11:41:17;1.80;;;1.03;;
13568;SDS011;6856;51.460;7.158;2022-09-29T11:44:15;2.43;;;1.30;;
13568;SDS011;6856;51.460;7.158;2022-09-29T11:47:13;1.73;;;1.13;;
13568;SDS011;6856;51.460;7.158;2022-09-29T11:50:14;2.90;;;1.10;;
13568;SDS011;6856;51.460;7.158;2022-09-29T11:53:17;1.13;;;1.03;;
13568;SDS011;6856;51.460;7.158;2022-09-29T11:56:11;1.80;;;1.13;;
13568;SDS011;6856;51.460;7.158;2022-09-29T11:59:00;1.67;;;1.10;;
13568;SDS011;6856;51.460;7.158;2022-09-29T12:01:56;1.73;;;0.90;;
13568;SDS011;6856;51.460;7.158;2022-09-29T12:05:02;1.30;;;1.00;;
13568;SDS011;6856;51.460;7.158;2022-09-29T12:07:50;1.03;;;0.90;;
13568;SDS011;6856;51.460;7.158;2022-09-29T12:10:43;1.00;;;0.90;;
13568;SDS011;6856;51.460;7.158;2022-09-29T12:13:29;1.70;;;0.80;;
13568;SDS011;6856;51.460;7.158;2022-09-29T12:16:19;1.40;;;1.00;;
13568;SDS011;6856;51.460;7.158;2022-09-29T12:18:57;3.10;;;1.27;;
13568;SDS011;6856;51.460;7.158;2022-09-29T12:21:39;1.20;;;0.90;;
13568;SDS011;6856;51.460;7.158;2022-09-29T12:24:18;2.37;;;1.17;;
13568;SDS011;6856;51.460;7.158;2022-09-29T12:27:06;0.77;;;0.73;;
13568;SDS011;6856;51.460;7.158;2022-09-29T12:29:48;1.83;;;1.10;;
13568;SDS011;6856;51.460;7.158;2022-09-29T12:32:28;2.57;;;1.20;;
13568;SDS011;6856;51.460;7.158;2022-09-29T12:35:08;1.67;;;1.17;;
13568;SDS011;6856;51.460;7.158;2022-09-29T12:37:51;1.03;;;0.67;;
13568;SDS011;6856;51.460;7.158;2022-09-29T12:40:32;1.37;;;0.73;;
13568;SDS011;6856;51.460;7.158;2022-09-29T12:43:11;3.70;;;1.10;;
13568;SDS011;6856;51.460;7.158;2022-09-29T12:45:53;2.07;;;0.93;;
13568;SDS011;6856;51.460;7.158;2022-09-29T12:48:41;1.00;;;0.80;;
13568;SDS011;6856;51.460;7.158;2022-09-29T12:51:29;1.50;;;0.73;;
13568;SDS011;6856;51.460;7.158;2022-09-29T12:54:10;0.73;;;0.60;;
13568;SDS011;6856;51.460;7.158;2022-09-29T12:56:53;1.17;;;0.90;;
13568;SDS011;6856;51.460;7.158;2022-09-29T12:59:33;1.10;;;0.80;;
13568;SDS011;6856;51.460;7.158;2022-09-29T13:02:20;1.73;;;0.90;;
13568;SDS011;6856;51.460;7.158;2022-09-29T13:08:50;0.83;;;0.63;;
13568;SDS011;6856;51.460;7.158;2022-09-29T13:12:02;1.13;;;0.70;;
13568;SDS011;6856;51.460;7.158;2022-09-29T13:22:12;0.60;;;0.50;;
13568;SDS011;6856;51.460;7.158;2022-09-29T13:25:10;0.70;;;0.60;;
13568;SDS011;6856;51.460;7.158;2022-09-29T13:27:55;1.03;;;0.63;;
13568;SDS011;6856;51.460;7.158;2022-09-29T13:30:32;0.97;;;0.67;;
13568;SDS011;6856;51.460;7.158;2022-09-29T13:33:09;1.67;;;0.90;;
13568;SDS011;6856;51.460;7.158;2022-09-29T13:35:51;2.10;;;0.90;;
13568;SDS011;6856;51.460;7.158;2022-09-29T13:38:27;1.00;;;0.73;;
13568;SDS011;6856;51.460;7.158;2022-09-29T13:41:11;1.40;;;0.90;;
13568;SDS011;6856;51.460;7.158;2022-09-29T13:47:09;2.50;;;1.37;;
13568;SDS011;6856;51.460;7.158;2022-09-29T13:53:32;2.43;;;1.30;;
13568;SDS011;6856;51.460;7.158;2022-09-29T13:56:08;2.83;;;1.00;;
13568;SDS011;6856;51.460;7.158;2022-09-29T13:58:56;1.63;;;1.23;;
13568;SDS011;6856;51.460;7.158;2022-09-29T14:01:33;2.00;;;1.30;;
13568;SDS011;6856;51.460;7.158;2022-09-29T14:07:35;1.23;;;0.90;;
13568;SDS011;6856;51.460;7.158;2022-09-29T14:10:20;3.03;;;1.37;;
13568;SDS011;6856;51.460;7.158;2022-09-29T14:13:14;1.30;;;1.10;;
13568;SDS011;6856;51.460;7.158;2022-09-29T14:16:02;2.50;;;1.47;;
13568;SDS011;6856;51.460;7.158;2022-09-29T14:18:50;2.27;;;1.23;;
13568;SDS011;6856;51.460;7.158;2022-09-29T14:21:48;2.33;;;1.20;;
13568;SDS011;6856;51.460;7.158;2022-09-29T14:24:44;2.97;;;1.60;;
13568;SDS011;6856;51.460;7.158;2022-09-29T14:27:28;2.43;;;1.10;;
13568;SDS011;6856;51.460;7.158;2022-09-29T14:30:14;2.53;;;1.20;;
13568;SDS011;6856;51.460;7.158;2022-09-29T14:32:51;1.97;;;1.03;;
13568;SDS011;6856;51.460;7.158;2022-09-29T14:35:31;1.20;;;1.10;;
13568;SDS011;6856;51.460;7.158;2022-09-29T14:38:13;1.17;;;0.93;;
13568;SDS011;6856;51.460;7.158;2022-09-29T14:40:55;1.30;;;0.93;;
13568;SDS011;6856;51.460;7.158;2022-09-29T14:43:36;1.77;;;1.03;;
13568;SDS011;6856;51.460;7.158;2022-09-29T14:46:18;1.57;;;1.00;;
13568;SDS011;6856;51.460;7.158;2022-09-29T14:49:34;1.17;;;0.87;;
13568;SDS011;6856;51.460;7.158;2022-09-29T14:53:19;2.30;;;1.17;;
13568;SDS011;6856;51.460;7.158;2022-09-29T14:56:31;1.80;;;0.97;;
13568;SDS011;6856;51.460;7.158;2022-09-29T14:59:24;2.00;;;1.33;;
13568;SDS011;6856;51.460;7.158;2022-09-29T15:02:19;1.77;;;1.30;;
13568;SDS011;6856;51.460;7.158;2022-09-29T15:04:57;1.87;;;1.30;;
13568;SDS011;6856;51.460;7.158;2022-09-29T15:07:31;2.47;;;1.50;;
13568;SDS011;6856;51.460;7.158;2022-09-29T15:10:19;1.80;;;1.40;;
13568;SDS011;6856;51.460;7.158;2022-09-29T15:15:53;1.30;;;1.00;;
13568;SDS011;6856;51.460;7.158;2022-09-29T15:18:38;3.00;;;1.47;;
13568;SDS011;6856;51.460;7.158;2022-09-29T15:21:38;1.40;;;1.20;;
13568;SDS011;6856;51.460;7.158;2022-09-29T15:24:28;1.27;;;1.00;;
13568;SDS011;6856;51.460;7.158;2022-09-29T15:27:31;2.23;;;1.40;;
13568;SDS011;6856;51.460;7.158;2022-09-29T15:30:10;1.93;;;1.30;;
13568;SDS011;6856;51.460;7.158;2022-09-29T15:32:49;1.60;;;1.10;;
13568;SDS011;6856;51.460;7.158;2022-09-29T15:35:24;2.10;;;1.30;;
13568;SDS011;6856;51.460;7.158;2022-09-29T15:38:14;2.17;;;1.40;;
13568;SDS011;6856;51.460;7.158;2022-09-29T15:41:03;2.00;;;1.10;;
13568;SDS011;6856;51.460;7.158;2022-09-29T15:43:53;1.77;;;0.87;;
13568;SDS011;6856;51.460;7.158;2022-09-29T15:46:35;2.20;;;1.10;;
13568;SDS011;6856;51.460;7.158;2022-09-29T15:49:14;1.20;;;1.10;;
13568;SDS011;6856;51.460;7.158;2022-09-29T15:51:55;1.33;;;0.80;;
13568;SDS011;6856;51.460;7.158;2022-09-29T15:54:32;2.03;;;1.10;;
13568;SDS011;6856;51.460;7.158;2022-09-29T15:57:18;2.70;;;1.20;;
13568;SDS011;6856;51.460;7.158;2022-09-29T16:00:41;1.63;;;0.93;;
13568;SDS011;6856;51.460;7.158;2022-09-29T16:03:20;1.60;;;1.07;;
13568;SDS011;6856;51.460;7.158;2022-09-29T16:06:03;2.50;;;1.20;;
13568;SDS011;6856;51.460;7.158;2022-09-29T16:08:45;1.90;;;1.13;;
13568;SDS011;6856;51.460;7.158;2022-09-29T16:11:24;1.10;;;1.00;;
13568;SDS011;6856;51.460;7.158;2022-09-29T16:14:02;2.70;;;1.00;;
13568;SDS011;6856;51.460;7.158;2022-09-29T16:16:42;0.80;;;0.80;;
13568;SDS011;6856;51.460;7.158;2022-09-29T16:19:19;3.27;;;1.20;;
13568;SDS011;6856;51.460;7.158;2022-09-29T16:22:00;2.17;;;1.10;;
13568;SDS011;6856;51.460;7.158;2022-09-29T16:24:38;0.90;;;0.80;;
13568;SDS011;6856;51.460;7.158;2022-09-29T16:27:45;1.83;;;0.90;;
13568;SDS011;6856;51.460;7.158;2022-09-29T16:30:29;1.80;;;1.10;;
13568;SDS011;6856;51.460;7.158;2022-09-29T16:33:11;1.83;;;0.90;;
13568;SDS011;6856;51.460;7.158;2022-09-29T16:35:54;2.23;;;1.00;;
13568;SDS011;6856;51.460;7.158;2022-09-29T16:38:34;1.23;;;0.93;;
13568;SDS011;6856;51.460;7.158;2022-09-29T16:41:14;2.53;;;1.10;;
13568;SDS011;6856;51.460;7.158;2022-09-29T16:44:03;1.10;;;0.87;;
13568;SDS011;6856;51.460;7.158;2022-09-29T16:46:44;4.17;;;2.00;;
13568;SDS011;6856;51.460;7.158;2022-09-29T16:49:22;5.60;;;3.00;;
13568;SDS011;6856;51.460;7.158;2022-09-29T16:52:01;4.80;;;2.77;;
13568;SDS011;6856;51.460;7.158;2022-09-29T16:54:47;4.43;;;2.77;;
13568;SDS011;6856;51.460;7.158;2022-09-29T16:57:23;3.47;;;2.40;;
13568;SDS011;6856;51.460;7.158;2022-09-29T17:00:00;3.80;;;2.10;;
13568;SDS011;6856;51.460;7.158;2022-09-29T17:02:53;4.07;;;2.20;;
13568;SDS011;6856;51.460;7.158;2022-09-29T17:05:28;3.17;;;1.90;;
13568;SDS011;6856;51.460;7.158;2022-09-29T17:08:03;2.47;;;1.73;;
13568;SDS011;6856;51.460;7.158;2022-09-29T17:10:45;2.33;;;1.70;;
13568;SDS011;6856;51.460;7.158;2022-09-29T17:13:19;3.47;;;1.80;;
13568;SDS011;6856;51.460;7.158;2022-09-29T17:15:54;2.47;;;1.33;;
13568;SDS011;6856;51.460;7.158;2022-09-29T17:18:27;2.63;;;1.50;;
13568;SDS011;6856;51.460;7.158;2022-09-29T17:21:01;3.10;;;1.67;;
13568;SDS011;6856;51.460;7.158;2022-09-29T17:23:34;1.33;;;0.90;;
13568;SDS011;6856;51.460;7.158;2022-09-29T17:26:11;2.47;;;1.30;;
13568;SDS011;6856;51.460;7.158;2022-09-29T17:29:09;2.50;;;1.27;;
13568;SDS011;6856;51.460;7.158;2022-09-29T17:31:43;2.27;;;1.33;;
13568;SDS011;6856;51.460;7.158;2022-09-29T17:34:16;1.60;;;1.13;;
13568;SDS011;6856;51.460;7.158;2022-09-29T17:36:54;2.67;;;1.23;;
13568;SDS011;6856;51.460;7.158;2022-09-29T17:39:41;3.43;;;1.60;;
13568;SDS011;6856;51.460;7.158;2022-09-29T17:42:17;2.77;;;1.50;;
13568;SDS011;6856;51.460;7.158;2022-09-29T17:44:50;2.17;;;1.20;;
13568;SDS011;6856;51.460;7.158;2022-09-29T17:47:23;2.80;;;1.50;;
13568;SDS011;6856;51.460;7.158;2022-09-29T17:50:00;1.93;;;1.40;;
13568;SDS011;6856;51.460;7.158;2022-09-29T17:52:53;4.90;;;1.70;;
13568;SDS011;6856;51.460;7.158;2022-09-29T17:55:29;2.07;;;1.30;;
13568;SDS011;6856;51.460;7.158;2022-09-29T17:58:05;2.13;;;1.00;;
13568;SDS011;6856;51.460;7.158;2022-09-29T18:00:40;3.93;;;1.73;;
13568;SDS011;6856;51.460;7.158;2022-09-29T18:03:18;3.67;;;1.37;;
13568;SDS011;6856;51.460;7.158;2022-09-29T18:05:53;2.63;;;1.40;;
13568;SDS011;6856;51.460;7.158;2022-09-29T18:08:29;3.13;;;1.53;;
13568;SDS011;6856;51.460;7.158;2022-09-29T18:11:02;2.43;;;1.50;;
13568;SDS011;6856;51.460;7.158;2022-09-29T18:13:38;2.13;;;1.37;;
13568;SDS011;6856;51.460;7.158;2022-09-29T18:16:13;2.43;;;1.60;;
13568;SDS011;6856;51.460;7.158;2022-09-29T18:18:49;2.20;;;1.23;;
13568;SDS011;6856;51.460;7.158;2022-09-29T18:21:29;2.37;;;1.33;;
13568;SDS011;6856;51.460;7.158;2022-09-29T18:24:04;2.90;;;1.70;;
13568;SDS011;6856;51.460;7.158;2022-09-29T18:26:40;2.47;;;1.40;;
13568;SDS011;6856;51.460;7.158;2022-09-29T18:29:18;3.40;;;1.70;;
13568;SDS011;6856;51.460;7.158;2022-09-29T18:31:51;2.90;;;2.17;;
13568;SDS011;6856;51.460;7.158;2022-09-29T18:34:25;3.73;;;2.30;;
13568;SDS011;6856;51.460;7.158;2022-09-29T18:37:01;4.50;;;3.00;;
13568;SDS011;6856;51.460;7.158;2022-09-29T18:39:36;10.77;;;7.03;;
13568;SDS011;6856;51.460;7.158;2022-09-29T18:42:09;13.93;;;9.10;;
13568;SDS011;6856;51.460;7.158;2022-09-29T18:44:45;8.67;;;6.23;;
13568;SDS011;6856;51.460;7.158;2022-09-29T18:47:18;9.17;;;6.27;;
13568;SDS011;6856;51.460;7.158;2022-09-29T18:49:52;9.13;;;5.73;;
13568;SDS011;6856;51.460;7.158;2022-09-29T18:52:25;7.30;;;4.93;;
13568;SDS011;6856;51.460;7.158;2022-09-29T18:54:59;7.53;;;5.13;;
13568;SDS011;6856;51.460;7.158;2022-09-29T18:57:32;5.03;;;3.63;;
13568;SDS011;6856;51.460;7.158;2022-09-29T19:00:08;5.43;;;3.50;;
13568;SDS011;6856;51.460;7.158;2022-09-29T19:02:45;5.33;;;3.40;;
13568;SDS011;6856;51.460;7.158;2022-09-29T19:05:20;5.27;;;2.50;;
13568;SDS011;6856;51.460;7.158;2022-09-29T19:08:00;3.70;;;2.70;;
13568;SDS011;6856;51.460;7.158;2022-09-29T19:10:35;4.07;;;2.20;;
13568;SDS011;6856;51.460;7.158;2022-09-29T19:13:12;4.17;;;2.20;;
13568;SDS011;6856;51.460;7.158;2022-09-29T19:15:49;3.33;;;2.27;;
13568;SDS011;6856;51.460;7.158;2022-09-29T19:18:27;3.30;;;2.17;;
13568;SDS011;6856;51.460;7.158;2022-09-29T19:21:02;4.07;;;2.23;;
13568;SDS011;6856;51.460;7.158;2022-09-29T19:23:42;3.30;;;2.10;;